Time;durP1;ratioP1;P1;durP2;ratioP2;P2;SDS_P1;SDS_P2;PMS_P1;PMS_P2;Temp;Humidity;BMP_temperature;BMP_pressure;BME280_temperature;BME280_humidity;BME280_pressure;Samples;Min_cycle;Max_cycle;Signal;HPM_P1;HPM_P2
2021/01/29 00:01:57;;;;;;;7.07;2.93;;;;;;;;;;10260478;28;20060;-65
2021/01/29 00:06:54;;;;;;;3.78;2.63;;;;;;;;;;10251394;28;20096;-64
2021/01/29 00:11:52;;;;;;;4.47;1.80;;;;;;;;;;10285605;28;20037;-64
2021/01/29 00:16:50;;;;;;;3.27;2.07;;;;;;;;;;10273068;28;20052;-65
2021/01/29 00:21:47;;;;;;;3.03;2.25;;;;;;;;;;10286397;28;20433;-64
2021/01/29 00:26:45;;;;;;;2.67;1.87;;;;;;;;;;10282493;28;20047;-64
2021/01/29 00:31:42;;;;;;;3.10;1.83;;;;;;;;;;10276874;28;20042;-69
2021/01/29 00:36:40;;;;;;;3.27;1.80;;;;;;;;;;10273796;28;20305;-64
2021/01/29 00:41:37;;;;;;;3.17;1.63;;;;;;;;;;10283976;28;20484;-64
2021/01/29 00:46:35;;;;;;;4.63;1.80;;;;;;;;;;10273017;28;20025;-63
2021/01/29 00:51:32;;;;;;;2.30;1.52;;;;;;;;;;10289089;28;20433;-64
2021/01/29 00:56:30;;;;;;;1.90;1.80;;;;;;;;;;10268841;28;20662;-64
2021/01/29 01:01:39;;;;;;;2.67;1.38;;;;;;;;;;10222020;28;20283;-64
2021/01/29 01:06:36;;;;;;;4.50;1.80;;;;;;;;;;10247411;28;20416;-65
2021/01/29 01:12:03;;;;;;;3.97;1.92;;;;;;;;;;10219420;28;20038;-65
2021/01/29 01:17:21;;;;;;;3.03;1.60;;;;;;;;;;10294813;28;20569;-64
2021/01/29 01:22:39;;;;;;;2.53;1.83;;;;;;;;;;10294612;28;20439;-63
2021/01/29 01:27:59;;;;;;;3.38;1.52;;;;;;;;;;10289283;28;20405;-64
2021/01/29 01:33:04;;;;;;;4.03;1.83;;;;;;;;;;10313233;28;20539;-65
2021/01/29 01:38:17;;;;;;;3.55;1.80;;;;;;;;;;10288867;28;20048;-64
2021/01/29 01:43:17;;;;;;;3.47;1.48;;;;;;;;;;10283924;28;20112;-64
2021/01/29 01:48:53;;;;;;;4.65;1.27;;;;;;;;;;10269948;28;20033;-64
2021/01/29 01:54:47;;;;;;;4.70;1.85;;;;;;;;;;10296525;28;20081;-65
2021/01/29 01:59:47;;;;;;;1.45;1.10;;;;;;;;;;10289310;28;20468;-64
2021/01/29 02:05:08;;;;;;;3.35;1.73;;;;;;;;;;10289951;28;20029;-65
2021/01/29 02:10:25;;;;;;;2.95;1.75;;;;;;;;;;10276019;28;20038;-64
2021/01/29 02:15:25;;;;;;;2.83;1.33;;;;;;;;;;10255351;28;20066;-64
2021/01/29 02:20:25;;;;;;;3.83;1.40;;;;;;;;;;10237440;28;20034;-64
2021/01/29 02:25:41;;;;;;;1.60;1.00;;;;;;;;;;10239286;28;20630;-63
2021/01/29 02:31:06;;;;;;;2.70;1.10;;;;;;;;;;10271418;28;21021;-65
2021/01/29 02:36:17;;;;;;;1.88;1.65;;;;;;;;;;10218717;28;20164;-63
2021/01/29 02:41:18;;;;;;;2.78;1.73;;;;;;;;;;10276004;28;20042;-64
2021/01/29 02:46:26;;;;;;;2.60;2.40;;;;;;;;;;10289371;28;20045;-65
2021/01/29 02:51:38;;;;;;;1.92;1.55;;;;;;;;;;10251528;28;20439;-65
2021/01/29 02:57:20;;;;;;;3.38;2.00;;;;;;;;;;10230729;28;20125;-64
2021/01/29 03:02:59;;;;;;;3.17;1.88;;;;;;;;;;10262923;28;20044;-65
2021/01/29 03:08:38;;;;;;;4.32;1.58;;;;;;;;;;10265563;28;20034;-64
2021/01/29 03:14:00;;;;;;;1.85;1.40;;;;;;;;;;10267799;28;20037;-65
2021/01/29 03:19:30;;;;;;;4.25;2.03;;;;;;;;;;10231868;28;20054;-67
2021/01/29 03:24:49;;;;;;;5.07;1.52;;;;;;;;;;10233942;28;20050;-63
2021/01/29 03:30:11;;;;;;;2.40;1.45;;;;;;;;;;10225593;28;20046;-65
2021/01/29 03:35:39;;;;;;;7.07;1.73;;;;;;;;;;10219503;28;20046;-65
2021/01/29 03:41:18;;;;;;;4.88;1.75;;;;;;;;;;10222784;28;20441;-64
2021/01/29 03:46:37;;;;;;;4.68;1.90;;;;;;;;;;10220403;28;21039;-64
2021/01/29 03:51:59;;;;;;;2.87;2.17;;;;;;;;;;10228291;28;20124;-64
2021/01/29 03:57:24;;;;;;;3.40;1.38;;;;;;;;;;10218944;28;20289;-64
2021/01/29 04:02:56;;;;;;;3.65;1.77;;;;;;;;;;10226215;28;20041;-63
2021/01/29 04:08:14;;;;;;;3.10;1.33;;;;;;;;;;10208331;28;20050;-64
2021/01/29 04:13:30;;;;;;;5.20;1.60;;;;;;;;;;10220359;28;20054;-63
2021/01/29 04:18:45;;;;;;;3.72;1.70;;;;;;;;;;10241792;28;20525;-64
2021/01/29 04:23:59;;;;;;;2.72;1.10;;;;;;;;;;10219226;28;20044;-65
2021/01/29 04:29:05;;;;;;;2.70;1.33;;;;;;;;;;10254265;28;20049;-64
2021/01/29 04:34:06;;;;;;;1.45;1.30;;;;;;;;;;10225359;28;20068;-65
2021/01/29 04:39:06;;;;;;;4.80;1.15;;;;;;;;;;10210895;28;20700;-65
2021/01/29 04:44:12;;;;;;;4.18;1.42;;;;;;;;;;10216285;28;20042;-66
2021/01/29 04:49:10;;;;;;;1.27;1.13;;;;;;;;;;10212698;28;20038;-65
2021/01/29 04:54:16;;;;;;;1.07;1.00;;;;;;;;;;10220414;28;20436;-64
2021/01/29 04:59:24;;;;;;;1.85;1.70;;;;;;;;;;10208786;28;20048;-65
2021/01/29 05:04:57;;;;;;;2.20;1.33;;;;;;;;;;10206059;28;20050;-64
2021/01/29 05:10:21;;;;;;;1.77;1.10;;;;;;;;;;10219085;28;20069;-65
2021/01/29 05:15:31;;;;;;;2.67;0.80;;;;;;;;;;10214221;28;20628;-65
2021/01/29 05:20:32;;;;;;;3.78;1.00;;;;;;;;;;10219550;28;20030;-64
2021/01/29 05:25:59;;;;;;;2.28;1.00;;;;;;;;;;10216771;28;20056;-65
2021/01/29 05:31:02;;;;;;;5.68;1.17;;;;;;;;;;10199939;28;20754;-66
2021/01/29 05:36:09;;;;;;;3.17;1.13;;;;;;;;;;10219190;28;20045;-65
2021/01/29 05:41:09;;;;;;;1.30;0.93;;;;;;;;;;10216800;28;20038;-65
2021/01/29 05:46:20;;;;;;;2.10;1.17;;;;;;;;;;10213648;28;20518;-64
2021/01/29 05:51:27;;;;;;;1.95;1.00;;;;;;;;;;10240887;28;20507;-66
2021/01/29 05:56:30;;;;;;;2.60;1.17;;;;;;;;;;10240048;28;20045;-63
2021/01/29 06:01:55;;;;;;;1.40;0.70;;;;;;;;;;10246178;28;20041;-65
2021/01/29 06:07:05;;;;;;;3.63;1.10;;;;;;;;;;10247512;28;20061;-64
2021/01/29 06:12:05;;;;;;;1.30;1.17;;;;;;;;;;10242018;28;20042;-65
2021/01/29 06:17:21;;;;;;;1.75;1.13;;;;;;;;;;10264072;28;20103;-65
2021/01/29 06:22:38;;;;;;;2.70;1.92;;;;;;;;;;10254148;28;20049;-65
2021/01/29 06:27:53;;;;;;;2.60;1.95;;;;;;;;;;10265600;28;20041;-64
2021/01/29 06:32:51;;;;;;;4.30;1.70;;;;;;;;;;10260002;28;20041;-65
2021/01/29 06:37:48;;;;;;;1.37;1.00;;;;;;;;;;10272787;28;20099;-65
2021/01/29 06:43:04;;;;;;;2.10;1.47;;;;;;;;;;10240299;28;20068;-65
2021/01/29 06:48:22;;;;;;;1.23;0.73;;;;;;;;;;10223468;28;20572;-65
2021/01/29 06:53:45;;;;;;;3.33;1.27;;;;;;;;;;10219176;28;20038;-64
2021/01/29 06:58:49;;;;;;;1.42;1.27;;;;;;;;;;10228962;28;20049;-65
2021/01/29 07:03:52;;;;;;;2.88;2.05;;;;;;;;;;10256563;28;20440;-65
2021/01/29 07:09:08;;;;;;;2.95;1.67;;;;;;;;;;10229631;28;20094;-64
2021/01/29 07:14:22;;;;;;;3.90;1.73;;;;;;;;;;10275713;28;20503;-65
2021/01/29 07:19:38;;;;;;;2.38;1.45;;;;;;;;;;10220477;28;20584;-63
2021/01/29 07:24:35;;;;;;;2.03;1.58;;;;;;;;;;10207776;28;20056;-64
2021/01/29 07:29:38;;;;;;;1.83;1.30;;;;;;;;;;10266841;28;21496;-65
2021/01/29 07:35:02;;;;;;;1.67;1.30;;;;;;;;;;10282587;28;20065;-65
2021/01/29 07:40:20;;;;;;;4.90;1.20;;;;;;;;;;10230938;28;20034;-65
2021/01/29 07:45:30;;;;;;;2.03;1.08;;;;;;;;;;10214819;28;20065;-65
2021/01/29 07:50:43;;;;;;;2.30;1.38;;;;;;;;;;10218905;28;20033;-65
2021/01/29 07:55:46;;;;;;;3.33;1.15;;;;;;;;;;10216101;28;20686;-66
2021/01/29 08:00:53;;;;;;;1.33;0.93;;;;;;;;;;10248835;28;20037;-64
2021/01/29 08:06:00;;;;;;;3.92;1.00;;;;;;;;;;10274452;28;20124;-65
2021/01/29 08:10:59;;;;;;;2.53;1.25;;;;;;;;;;10302337;23;20099;-64
2021/01/29 08:16:15;;;;;;;1.35;1.23;;;;;;;;;;10286606;28;20076;-64
2021/01/29 08:21:23;;;;;;;2.10;1.02;;;;;;;;;;10284657;28;20125;-64
2021/01/29 08:26:39;;;;;;;1.17;0.85;;;;;;;;;;10227005;28;20036;-65
2021/01/29 08:31:39;;;;;;;2.60;1.00;;;;;;;;;;10270602;28;20029;-65
2021/01/29 08:37:28;;;;;;;1.45;1.02;;;;;;;;;;10242119;28;20675;-64
2021/01/29 08:42:34;;;;;;;3.38;1.35;;;;;;;;;;10257570;28;20408;-64
2021/01/29 08:47:44;;;;;;;3.63;1.27;;;;;;;;;;10283589;28;20034;-65
2021/01/29 08:53:01;;;;;;;0.82;0.82;;;;;;;;;;10249093;28;20128;-66
2021/01/29 08:58:12;;;;;;;1.92;0.90;;;;;;;;;;10272878;28;20511;-64
2021/01/29 09:03:09;;;;;;;1.65;0.95;;;;;;;;;;10254970;28;20045;-64
2021/01/29 09:08:07;;;;;;;1.17;1.07;;;;;;;;;;10271210;28;20520;-64
2021/01/29 09:13:05;;;;;;;1.83;0.80;;;;;;;;;;10256622;28;20033;-64
2021/01/29 09:18:05;;;;;;;1.65;0.85;;;;;;;;;;10281079;28;20041;-63
2021/01/29 09:23:09;;;;;;;1.23;0.85;;;;;;;;;;10280430;28;20060;-64
2021/01/29 09:28:12;;;;;;;3.45;1.02;;;;;;;;;;10262484;28;20416;-64
2021/01/29 09:33:16;;;;;;;1.88;1.10;;;;;;;;;;10277321;28;20399;-64
2021/01/29 09:38:16;;;;;;;2.33;1.00;;;;;;;;;;10239708;28;20393;-64
2021/01/29 09:43:23;;;;;;;2.35;1.08;;;;;;;;;;10269541;28;20037;-63
2021/01/29 09:48:22;;;;;;;1.27;0.95;;;;;;;;;;10285095;28;20065;-64
2021/01/29 09:53:24;;;;;;;0.82;0.70;;;;;;;;;;10276638;28;20076;-63
2021/01/29 09:58:34;;;;;;;1.90;1.10;;;;;;;;;;10248256;28;20060;-65
2021/01/29 10:03:40;;;;;;;2.20;1.02;;;;;;;;;;10275409;28;20034;-64
2021/01/29 10:08:42;;;;;;;3.00;1.23;;;;;;;;;;10298615;28;20092;-65
2021/01/29 10:13:40;;;;;;;4.82;1.25;;;;;;;;;;10296502;28;20097;-64
2021/01/29 10:18:38;;;;;;;0.93;0.90;;;;;;;;;;10266981;28;20075;-64
2021/01/29 10:23:42;;;;;;;2.78;1.05;;;;;;;;;;10291386;28;20033;-63
2021/01/29 10:28:46;;;;;;;2.38;1.25;;;;;;;;;;10277241;28;20103;-61
2021/01/29 10:33:45;;;;;;;2.42;1.40;;;;;;;;;;10286798;28;20056;-64
2021/01/29 10:38:46;;;;;;;1.38;0.95;;;;;;;;;;10267992;28;20106;-63
2021/01/29 10:43:47;;;;;;;3.92;1.00;;;;;;;;;;10282091;28;20396;-63
2021/01/29 10:48:47;;;;;;;2.33;1.30;;;;;;;;;;10273422;28;20049;-63
2021/01/29 10:53:44;;;;;;;1.83;1.45;;;;;;;;;;10290676;28;20488;-63
2021/01/29 10:59:14;;;;;;;2.07;1.23;;;;;;;;;;10280311;28;20128;-64
2021/01/29 11:04:17;;;;;;;1.35;1.20;;;;;;;;;;10271398;28;20057;-63
2021/01/29 11:09:24;;;;;;;4.05;1.80;;;;;;;;;;10275105;28;20041;-64
2021/01/29 11:14:30;;;;;;;2.80;1.88;;;;;;;;;;10289687;28;20038;-63
2021/01/29 11:19:36;;;;;;;6.47;1.52;;;;;;;;;;10282558;28;20567;-64
2021/01/29 11:24:46;;;;;;;3.05;2.17;;;;;;;;;;10278708;28;20037;-64
2021/01/29 11:29:50;;;;;;;3.22;1.70;;;;;;;;;;10199419;28;20784;-63
2021/01/29 11:34:53;;;;;;;3.33;2.03;;;;;;;;;;10294351;28;20533;-65
2021/01/29 11:39:56;;;;;;;1.90;1.50;;;;;;;;;;10265282;28;20069;-62
2021/01/29 11:45:14;;;;;;;2.97;1.80;;;;;;;;;;10282101;28;20046;-64
2021/01/29 11:50:11;;;;;;;2.78;1.67;;;;;;;;;;10272564;28;20026;-64
2021/01/29 11:55:12;;;;;;;2.67;1.90;;;;;;;;;;10276500;28;20043;-64
2021/01/29 12:00:10;;;;;;;2.25;1.40;;;;;;;;;;10248321;28;20402;-63
2021/01/29 12:05:07;;;;;;;1.73;1.40;;;;;;;;;;10274355;28;20040;-64
2021/01/29 12:10:16;;;;;;;1.30;1.20;;;;;;;;;;10265997;28;20450;-64
2021/01/29 12:15:20;;;;;;;1.98;1.60;;;;;;;;;;10279157;28;20124;-65
2021/01/29 12:20:20;;;;;;;1.90;1.58;;;;;;;;;;10233028;28;20030;-66
2021/01/29 12:25:36;;;;;;;1.30;1.20;;;;;;;;;;10259905;28;20354;-65
2021/01/29 12:30:44;;;;;;;3.05;1.58;;;;;;;;;;10247309;28;20033;-65
2021/01/29 12:35:42;;;;;;;2.67;1.13;;;;;;;;;;10271245;28;20029;-65
2021/01/29 12:40:51;;;;;;;3.27;1.77;;;;;;;;;;10278976;28;20029;-65
2021/01/29 12:45:49;;;;;;;1.90;1.58;;;;;;;;;;10287639;28;20323;-65
2021/01/29 12:50:50;;;;;;;2.87;1.40;;;;;;;;;;10230003;28;20480;-64
2021/01/29 12:56:01;;;;;;;2.58;1.25;;;;;;;;;;10260615;28;20030;-64
2021/01/29 13:01:00;;;;;;;5.18;1.63;;;;;;;;;;10277252;28;20129;-64
2021/01/29 13:05:57;;;;;;;1.35;1.23;;;;;;;;;;10276995;28;20033;-64
2021/01/29 13:11:01;;;;;;;1.67;1.30;;;;;;;;;;10294321;28;20044;-65
2021/01/29 13:16:04;;;;;;;2.55;1.67;;;;;;;;;;10279625;28;20490;-65
2021/01/29 13:21:08;;;;;;;3.20;1.00;;;;;;;;;;10294178;28;20104;-64
2021/01/29 13:26:14;;;;;;;1.60;1.38;;;;;;;;;;10261395;28;20041;-66
2021/01/29 13:31:14;;;;;;;1.35;1.00;;;;;;;;;;10260425;28;20243;-64
2021/01/29 13:36:24;;;;;;;1.70;1.35;;;;;;;;;;10275185;28;20076;-64
2021/01/29 13:41:23;;;;;;;2.65;1.52;;;;;;;;;;10279840;28;20025;-66
2021/01/29 13:46:29;;;;;;;5.47;1.20;;;;;;;;;;10268573;28;20065;-65
2021/01/29 13:51:32;;;;;;;1.52;1.42;;;;;;;;;;10243824;28;20049;-65
2021/01/29 13:56:30;;;;;;;2.15;1.10;;;;;;;;;;10215990;28;20725;-66
2021/01/29 14:01:39;;;;;;;0.93;0.93;;;;;;;;;;10227129;28;20029;-66
2021/01/29 14:06:37;;;;;;;1.92;1.33;;;;;;;;;;10224793;28;20034;-65
2021/01/29 14:11:40;;;;;;;1.50;1.40;;;;;;;;;;10262452;28;20034;-64
2021/01/29 14:16:42;;;;;;;1.30;1.20;;;;;;;;;;10248145;28;20050;-64
2021/01/29 14:21:50;;;;;;;1.02;1.00;;;;;;;;;;10229168;28;20041;-64
2021/01/29 14:26:51;;;;;;;1.87;1.40;;;;;;;;;;10216559;28;20329;-63
2021/01/29 14:32:01;;;;;;;1.98;1.55;;;;;;;;;;10233381;28;20050;-63
2021/01/29 14:37:16;;;;;;;1.85;1.20;;;;;;;;;;10248637;28;20455;-64
2021/01/29 14:42:32;;;;;;;2.38;1.20;;;;;;;;;;10239295;28;20160;-66
2021/01/29 14:47:48;;;;;;;1.30;1.20;;;;;;;;;;10237696;28;20041;-67
2021/01/29 14:53:04;;;;;;;1.25;1.08;;;;;;;;;;10206382;28;20038;-67
2021/01/29 14:58:01;;;;;;;1.65;1.25;;;;;;;;;;10225319;28;20042;-66
2021/01/29 15:03:07;;;;;;;1.80;1.37;;;;;;;;;;10233187;28;20048;-66
2021/01/29 15:08:05;;;;;;;2.03;1.08;;;;;;;;;;10230067;28;20050;-66
2021/01/29 15:13:10;;;;;;;1.50;1.25;;;;;;;;;;10232406;28;20044;-67
2021/01/29 15:18:13;;;;;;;1.55;1.25;;;;;;;;;;10240805;28;20527;-66
2021/01/29 15:23:13;;;;;;;2.38;1.33;;;;;;;;;;10257440;28;20042;-66
2021/01/29 15:28:14;;;;;;;1.85;1.33;;;;;;;;;;10236652;28;20048;-66
2021/01/29 15:33:37;;;;;;;1.88;1.27;;;;;;;;;;10218902;28;20514;-66
2021/01/29 15:38:45;;;;;;;2.13;1.00;;;;;;;;;;10242026;28;20040;-63
2021/01/29 15:43:42;;;;;;;1.37;1.10;;;;;;;;;;10227872;28;20042;-66
2021/01/29 15:48:53;;;;;;;2.73;1.17;;;;;;;;;;10246393;28;20038;-66
2021/01/29 15:53:58;;;;;;;1.38;1.00;;;;;;;;;;10235000;28;20115;-66
2021/01/29 15:58:57;;;;;;;1.20;1.10;;;;;;;;;;10228809;28;20080;-65
2021/01/29 16:03:55;;;;;;;1.10;0.85;;;;;;;;;;10212633;28;20045;-66
2021/01/29 16:09:06;;;;;;;2.50;1.02;;;;;;;;;;10249614;28;20049;-65
2021/01/29 16:14:06;;;;;;;1.23;1.10;;;;;;;;;;10240420;28;20093;-65
2021/01/29 16:19:05;;;;;;;1.30;1.20;;;;;;;;;;10203276;28;20045;-65
2021/01/29 16:24:03;;;;;;;2.42;1.00;;;;;;;;;;10256004;28;20045;-66
2021/01/29 16:29:02;;;;;;;1.70;1.48;;;;;;;;;;10242002;28;20030;-64
2021/01/29 16:34:01;;;;;;;1.10;0.90;;;;;;;;;;10213340;28;20057;-64
2021/01/29 16:39:09;;;;;;;2.40;1.23;;;;;;;;;;10224498;28;20046;-65
2021/01/29 16:44:21;;;;;;;1.10;1.00;;;;;;;;;;10238053;28;20037;-66
2021/01/29 16:49:23;;;;;;;3.58;1.27;;;;;;;;;;10270029;28;20065;-65
2021/01/29 16:54:22;;;;;;;1.38;1.27;;;;;;;;;;10263263;28;20037;-66
2021/01/29 16:59:21;;;;;;;3.22;0.93;;;;;;;;;;10235500;28;20086;-66
2021/01/29 17:04:20;;;;;;;3.00;1.15;;;;;;;;;;10267312;28;20041;-66
2021/01/29 17:09:19;;;;;;;0.77;0.70;;;;;;;;;;10267523;28;20048;-65
2021/01/29 17:14:19;;;;;;;2.22;1.25;;;;;;;;;;10259438;28;20081;-66
2021/01/29 17:19:18;;;;;;;1.63;1.20;;;;;;;;;;10251372;28;20041;-65
2021/01/29 17:24:19;;;;;;;1.77;1.13;;;;;;;;;;10273143;28;20037;-65
2021/01/29 17:29:18;;;;;;;1.10;0.82;;;;;;;;;;10267229;28;20034;-66
2021/01/29 17:34:22;;;;;;;1.15;1.05;;;;;;;;;;10287052;28;20029;-65
2021/01/29 17:39:26;;;;;;;1.80;0.98;;;;;;;;;;10262274;28;20140;-66
2021/01/29 17:44:28;;;;;;;1.00;1.00;;;;;;;;;;10264258;28;20048;-64
2021/01/29 17:49:28;;;;;;;1.15;1.05;;;;;;;;;;10281767;28;20056;-64
2021/01/29 17:54:28;;;;;;;1.05;0.80;;;;;;;;;;10278007;28;20048;-65
2021/01/29 17:59:25;;;;;;;1.17;1.00;;;;;;;;;;10265754;28;20076;-65
2021/01/29 18:04:27;;;;;;;5.63;1.20;;;;;;;;;;10268966;28;21787;-62
2021/01/29 18:09:26;;;;;;;0.98;0.88;;;;;;;;;;10270326;28;20048;-64
2021/01/29 18:14:26;;;;;;;0.60;0.60;;;;;;;;;;10264211;28;20069;-64
2021/01/29 18:19:23;;;;;;;2.40;0.80;;;;;;;;;;10270643;28;20119;-64
2021/01/29 18:24:21;;;;;;;2.60;0.93;;;;;;;;;;10292147;28;20029;-65
2021/01/29 18:29:18;;;;;;;0.77;0.77;;;;;;;;;;10279358;28;20463;-65
2021/01/29 18:34:20;;;;;;;1.30;0.90;;;;;;;;;;10267507;28;20040;-65
2021/01/29 18:39:17;;;;;;;2.05;1.00;;;;;;;;;;10260860;28;20508;-66
2021/01/29 18:44:15;;;;;;;1.52;0.98;;;;;;;;;;10264095;28;20041;-65
2021/01/29 18:49:12;;;;;;;1.30;0.80;;;;;;;;;;10279342;28;20575;-65
2021/01/29 18:54:10;;;;;;;0.77;0.70;;;;;;;;;;10253920;28;20030;-66
2021/01/29 18:59:08;;;;;;;2.93;1.30;;;;;;;;;;10298919;28;20799;-65
2021/01/29 19:04:05;;;;;;;1.35;0.95;;;;;;;;;;10285294;28;20314;-64
2021/01/29 19:09:03;;;;;;;1.63;0.90;;;;;;;;;;10280841;28;20037;-65
2021/01/29 19:14:00;;;;;;;1.77;1.00;;;;;;;;;;10295868;28;20033;-65
2021/01/29 19:18:58;;;;;;;1.40;1.30;;;;;;;;;;10260359;28;20095;-62
2021/01/29 19:23:56;;;;;;;1.20;1.10;;;;;;;;;;10263739;28;20034;-65
2021/01/29 19:28:56;;;;;;;1.20;1.10;;;;;;;;;;10258654;28;20279;-67
2021/01/29 19:33:56;;;;;;;2.28;1.30;;;;;;;;;;10268421;28;20303;-66
2021/01/29 19:38:54;;;;;;;2.67;1.33;;;;;;;;;;10289646;28;20139;-66
2021/01/29 19:43:51;;;;;;;2.30;1.43;;;;;;;;;;10298908;28;20469;-68
2021/01/29 19:48:49;;;;;;;2.13;1.70;;;;;;;;;;10300398;28;20064;-64
2021/01/29 19:53:46;;;;;;;2.00;1.40;;;;;;;;;;10256346;28;20037;-64
2021/01/29 19:58:44;;;;;;;1.20;1.10;;;;;;;;;;10241310;28;20033;-64
2021/01/29 20:03:42;;;;;;;2.90;1.67;;;;;;;;;;10285958;28;20120;-65
2021/01/29 20:08:39;;;;;;;1.92;1.35;;;;;;;;;;10264664;28;20060;-64
2021/01/29 20:13:37;;;;;;;2.67;1.57;;;;;;;;;;10278148;28;20042;-67
2021/01/29 20:18:34;;;;;;;3.17;1.13;;;;;;;;;;10301020;28;20037;-65
2021/01/29 20:23:32;;;;;;;1.70;1.17;;;;;;;;;;10278284;28;20044;-65
2021/01/29 20:28:29;;;;;;;1.67;0.90;;;;;;;;;;10278528;28;20092;-64
2021/01/29 20:33:26;;;;;;;1.40;1.27;;;;;;;;;;10282936;28;20452;-64
2021/01/29 20:38:24;;;;;;;2.90;1.20;;;;;;;;;;10271012;28;20099;-63
2021/01/29 20:43:21;;;;;;;1.87;0.97;;;;;;;;;;10295930;28;20045;-64
2021/01/29 20:48:19;;;;;;;1.03;0.90;;;;;;;;;;10289884;28;20033;-67
2021/01/29 20:53:16;;;;;;;1.38;1.00;;;;;;;;;;10248152;28;20072;-64
2021/01/29 20:58:15;;;;;;;1.37;0.80;;;;;;;;;;10282738;28;20049;-67
2021/01/29 21:03:13;;;;;;;1.10;0.93;;;;;;;;;;10269355;28;20044;-66
2021/01/29 21:08:11;;;;;;;1.58;1.02;;;;;;;;;;10286550;28;20042;-66
2021/01/29 21:13:09;;;;;;;1.30;1.10;;;;;;;;;;10258159;28;20033;-67
2021/01/29 21:18:08;;;;;;;1.10;1.00;;;;;;;;;;10259520;28;20049;-66
2021/01/29 21:23:06;;;;;;;1.50;1.40;;;;;;;;;;10268401;28;20038;-66
2021/01/29 21:28:04;;;;;;;1.27;1.17;;;;;;;;;;10260862;28;20147;-65
2021/01/29 21:33:03;;;;;;;2.08;1.30;;;;;;;;;;10263829;28;20630;-67
2021/01/29 21:38:01;;;;;;;1.98;1.48;;;;;;;;;;10294471;28;20531;-65
2021/01/29 21:42:59;;;;;;;;;;;;;;;;;;10286290;28;20474;-66
2021/01/29 21:48:04;;;;;;;2.63;2.00;;;;;;;;;;10259177;28;20062;-67
2021/01/29 21:53:01;;;;;;;3.85;1.88;;;;;;;;;;10254916;28;20523;-66
2021/01/29 21:57:59;;;;;;;2.60;2.10;;;;;;;;;;10267534;28;20125;-65
2021/01/29 22:02:56;;;;;;;2.63;1.98;;;;;;;;;;10245048;28;20029;-66
2021/01/29 22:07:55;;;;;;;3.03;2.20;;;;;;;;;;10294457;28;20045;-66
2021/01/29 22:12:53;;;;;;;6.85;2.40;;;;;;;;;;10288049;28;20125;-66
2021/01/29 22:17:51;;;;;;;3.75;1.83;;;;;;;;;;10285528;28;20065;-66
2021/01/29 22:22:48;;;;;;;2.23;2.00;;;;;;;;;;10268224;28;20508;-65
2021/01/29 22:27:46;;;;;;;2.30;1.73;;;;;;;;;;10284748;28;20044;-66
2021/01/29 22:32:44;;;;;;;3.80;1.77;;;;;;;;;;10252077;28;21003;-67
2021/01/29 22:37:42;;;;;;;2.70;1.47;;;;;;;;;;10254908;28;20380;-65
2021/01/29 22:42:39;;;;;;;1.65;1.10;;;;;;;;;;10261854;28;20049;-66
2021/01/29 22:47:36;;;;;;;1.97;1.47;;;;;;;;;;10258793;28;20045;-67
2021/01/29 22:52:34;;;;;;;3.57;1.93;;;;;;;;;;10253832;28;20040;-65
2021/01/29 22:57:31;;;;;;;2.87;1.83;;;;;;;;;;10237384;28;20133;-65
2021/01/29 23:02:29;;;;;;;2.97;2.00;;;;;;;;;;10266378;28;20506;-64
2021/01/29 23:07:26;;;;;;;2.80;1.77;;;;;;;;;;10293129;28;20033;-65
2021/01/29 23:12:24;;;;;;;3.07;2.43;;;;;;;;;;10266309;28;20618;-62
2021/01/29 23:17:24;;;;;;;5.00;2.60;;;;;;;;;;10276390;28;20038;-67
2021/01/29 23:22:21;;;;;;;3.30;2.15;;;;;;;;;;10263764;28;20555;-63
2021/01/29 23:27:19;;;;;;;3.80;2.40;;;;;;;;;;10265812;28;20029;-65
2021/01/29 23:32:16;;;;;;;4.80;2.10;;;;;;;;;;10262558;28;20414;-64
2021/01/29 23:37:13;;;;;;;7.77;3.87;;;;;;;;;;10262094;28;20124;-65
2021/01/29 23:42:11;;;;;;;5.00;3.20;;;;;;;;;;10253204;28;20495;-64
2021/01/29 23:47:08;;;;;;;6.77;3.77;;;;;;;;;;10262786;28;20033;-64
2021/01/29 23:52:06;;;;;;;6.77;3.77;;;;;;;;;;10248561;28;20037;-67
2021/01/29 23:57:03;;;;;;;10.57;4.77;;;;;;;;;;10241474;28;20046;-64
